Time;durP1;ratioP1;P1;durP2;ratioP2;P2;SDS_P1;SDS_P2;PMS_P1;PMS_P2;Temp;Humidity;BMP_temperature;BMP_pressure;BME280_temperature;BME280_humidity;BME280_pressure;Samples;Min_cycle;Max_cycle;Signal;HPM_P1;HPM_P2
2021/11/04 00:01:54;;;;;;;80.40;35.15;;;9.40;99.90;;;7.31;100.00;99222.78;5010697;28;20506;-85
2021/11/04 00:04:25;;;;;;;84.43;34.47;;;9.40;99.90;;;7.29;100.00;99225.69;5009834;28;20085;-84
2021/11/04 00:06:54;;;;;;;72.50;33.20;;;9.40;99.90;;;7.33;100.00;99226.13;5010682;28;20509;-85
2021/11/04 00:09:23;;;;;;;76.72;33.47;;;9.40;99.90;;;7.34;100.00;99228.63;5009687;28;20419;-85
2021/11/04 00:11:50;;;;;;;74.22;35.90;;;9.40;99.90;;;7.35;100.00;99224.91;5010578;28;20052;-85
2021/11/04 00:14:17;;;;;;;81.07;35.58;;;9.40;99.90;;;7.35;100.00;99224.91;5010197;28;20089;-84
2021/11/04 00:16:45;;;;;;;75.25;34.10;;;9.40;99.90;;;7.33;100.00;99224.28;5010500;28;20038;-85
2021/11/04 00:19:12;;;;;;;78.80;36.45;;;9.40;99.90;;;7.29;100.00;99217.59;5009603;28;20128;-85
2021/11/04 00:21:40;;;;;;;77.65;35.05;;;9.40;99.90;;;7.29;100.00;99217.59;5010289;28;20080;-84
2021/11/04 00:24:07;;;;;;;85.88;34.28;;;9.30;99.90;;;7.33;100.00;99215.28;5008767;28;20159;-85
2021/11/04 00:26:37;;;;;;;74.18;32.30;;;9.30;99.90;;;7.28;100.00;99217.78;5010255;28;20045;-84
2021/11/04 00:29:06;;;;;;;81.07;36.45;;;9.30;99.90;;;7.27;100.00;99222.31;5009325;28;20497;-84
2021/11/04 00:31:33;;;;;;;86.65;36.33;;;9.40;99.90;;;7.27;100.00;99221.50;5009976;28;20074;-85
2021/11/04 00:34:00;;;;;;;90.70;35.78;;;9.40;99.90;;;7.30;100.00;99221.13;5008493;28;20136;-84
2021/11/04 00:36:28;;;;;;;76.97;34.80;;;9.40;99.90;;;7.29;100.00;99220.28;5009863;28;20433;-85
2021/11/04 00:38:55;;;;;;;77.22;33.58;;;9.40;99.90;;;7.35;100.00;99219.50;5009193;28;20048;-84
2021/11/04 00:41:22;;;;;;;80.32;34.35;;;9.60;99.90;;;7.35;100.00;99218.63;5009862;28;20596;-85
2021/11/04 00:43:51;;;;;;;70.40;31.90;;;9.40;99.90;;;7.27;100.00;99216.91;5005375;28;20092;-84
2021/11/04 00:46:18;;;;;;;79.18;33.63;;;9.40;99.90;;;7.28;100.00;99215.06;4990366;28;20122;-85
2021/11/04 00:48:46;;;;;;;77.10;34.03;;;9.50;99.90;;;7.28;100.00;99215.06;4988107;28;20055;-85
2021/11/04 00:51:13;;;;;;;71.32;34.25;;;9.50;99.90;;;7.28;100.00;99207.78;5008022;28;20046;-85
2021/11/04 00:53:40;;;;;;;76.47;35.03;;;9.50;99.90;;;7.28;100.00;99218.59;5009748;28;20061;-85
2021/11/04 00:56:08;;;;;;;82.97;35.22;;;9.50;99.90;;;7.28;100.00;99210.47;5009874;28;20038;-84
2021/11/04 00:58:35;;;;;;;74.15;33.63;;;9.50;99.90;;;7.24;100.00;99212.72;5008815;28;20096;-84
2021/11/04 01:01:04;;;;;;;72.75;33.20;;;9.50;99.90;;;7.29;100.00;99217.59;5009673;28;20637;-85
2021/11/04 01:03:32;;;;;;;69.85;32.53;;;9.50;99.90;;;7.26;100.00;99220.66;5009413;28;20064;-85
2021/11/04 01:05:59;;;;;;;76.30;34.85;;;9.40;99.90;;;7.27;100.00;99221.50;5009454;28;20045;-85
2021/11/04 01:08:27;;;;;;;82.38;35.83;;;9.40;99.90;;;7.24;100.00;99228.16;5008776;28;20054;-85
2021/11/04 01:10:54;;;;;;;76.70;35.80;;;9.40;99.90;;;7.23;100.00;99226.44;5003732;28;20062;-84
2021/11/04 01:13:22;;;;;;;90.38;36.85;;;9.40;99.90;;;7.19;100.00;99225.16;4989592;28;20507;-85
2021/11/04 01:15:49;;;;;;;76.55;35.13;;;9.40;99.90;;;7.18;100.00;99224.34;4988949;28;20054;-85
2021/11/04 01:18:18;;;;;;;82.65;36.40;;;9.40;99.90;;;7.21;100.00;99220.41;4989071;28;20546;-84
2021/11/04 01:20:45;;;;;;;75.60;35.13;;;9.40;99.90;;;7.24;100.00;99206.50;4989784;28;20038;-85
2021/11/04 01:23:13;;;;;;;82.90;35.88;;;9.40;99.90;;;7.27;100.00;99200.66;4989547;28;20145;-85
2021/11/04 01:25:40;;;;;;;92.57;36.58;;;9.40;99.90;;;7.21;100.00;99209.56;4989534;28;20050;-85
2021/11/04 01:28:09;;;;;;;77.40;36.22;;;9.40;99.90;;;7.18;100.00;99207.28;4990982;28;20494;-85
2021/11/04 01:30:36;;;;;;;79.32;36.47;;;9.40;99.90;;;7.20;100.00;99207.91;4989658;28;20050;-85
2021/11/04 01:33:04;;;;;;;96.68;37.45;;;9.40;99.90;;;7.21;100.00;99215.00;4989441;28;20074;-84
2021/11/04 01:35:33;;;;;;;78.25;34.05;;;9.40;99.90;;;7.18;100.00;99210.00;4988054;28;20054;-85
2021/11/04 01:38:01;;;;;;;76.40;34.40;;;9.40;99.90;;;7.21;100.00;99206.88;4988143;28;20112;-85
2021/11/04 01:40:29;;;;;;;78.38;35.92;;;9.40;99.90;;;7.18;100.00;99210.00;4989422;28;20053;-84
2021/11/04 01:42:56;;;;;;;76.07;36.20;;;9.40;99.90;;;7.17;100.00;99205.59;4989199;28;20062;-85
2021/11/04 01:45:24;;;;;;;86.22;36.35;;;9.40;99.90;;;7.17;100.00;99216.41;4989190;28;20410;-84
2021/11/04 01:47:51;;;;;;;77.07;35.97;;;9.40;99.90;;;7.17;100.00;99211.00;4988546;28;20124;-84
2021/11/04 01:50:22;;;;;;;83.47;38.85;;;9.40;99.90;;;7.17;100.00;99221.81;5014610;28;20528;-85
2021/11/04 01:52:51;;;;;;;87.35;35.92;;;9.30;99.90;;;7.19;100.00;99222.47;4989128;28;20038;-85
2021/11/04 01:55:23;;;;;;;90.25;38.75;;;9.40;99.90;;;7.20;100.00;99221.44;4969750;28;20049;-85
2021/11/04 01:57:51;;;;;;;82.93;36.83;;;9.40;99.90;;;7.18;100.00;99223.50;4969138;28;20043;-85
2021/11/04 02:00:22;;;;;;;90.30;37.22;;;9.40;99.90;;;7.17;100.00;99216.41;4984367;28;20074;-85
2021/11/04 02:02:59;;;;;;;87.35;39.15;;;9.40;99.90;;;7.11;100.00;99217.19;4969757;28;20039;-84
2021/11/04 02:05:37;;;;;;;89.45;36.38;;;9.40;99.90;;;7.13;100.00;99217.84;4968232;28;20046;-84
2021/11/04 02:08:14;;;;;;;86.50;37.33;;;9.40;99.90;;;7.07;100.00;99221.34;4968940;28;20050;-86
2021/11/04 02:10:44;;;;;;;86.10;36.10;;;9.40;99.90;;;7.04;100.00;99212.56;4969874;28;20126;-84
2021/11/04 02:13:19;;;;;;;90.95;38.38;;;9.40;99.90;;;7.13;100.00;99225.97;4969472;28;20563;-84
2021/11/04 02:15:49;;;;;;;89.88;36.63;;;9.30;99.90;;;7.14;100.00;99228.47;4969591;28;20117;-85
2021/11/04 02:18:18;;;;;;;83.15;37.72;;;9.40;99.90;;;7.02;100.00;99225.44;4968752;28;20046;-85
2021/11/04 02:21:01;;;;;;;90.10;36.75;;;9.30;99.90;;;7.03;100.00;99226.28;4969590;28;20043;-85
2021/11/04 02:23:40;;;;;;;87.88;37.13;;;9.30;99.90;;;7.00;100.00;99218.56;4984142;28;20149;-85
2021/11/04 02:26:10;;;;;;;87.60;37.67;;;9.30;99.90;;;6.96;100.00;99203.75;4969736;28;20078;-85
2021/11/04 02:28:40;;;;;;;86.53;36.00;;;9.30;99.90;;;7.02;100.00;99209.19;4972621;28;20066;-85
2021/11/04 02:31:09;;;;;;;85.38;36.28;;;9.30;99.90;;;7.05;100.00;99213.41;4973301;28;20065;-85
2021/11/04 02:33:38;;;;;;;84.32;34.40;;;9.20;99.90;;;7.02;100.00;99211.91;4973272;28;20590;-85
2021/11/04 02:36:08;;;;;;;78.70;35.42;;;9.20;99.90;;;7.00;100.00;99205.03;4973177;28;20070;-85
2021/11/04 02:38:35;;;;;;;82.25;36.00;;;9.20;99.90;;;7.02;100.00;99201.09;4972393;28;20039;-85
2021/11/04 02:41:05;;;;;;;85.07;35.85;;;9.20;99.90;;;6.99;100.00;99204.19;4973317;28;20042;-85
2021/11/04 02:43:36;;;;;;;80.40;34.75;;;9.20;99.90;;;6.99;100.00;99206.91;4974708;28;20522;-85
2021/11/04 02:46:04;;;;;;;86.55;36.58;;;9.20;99.90;;;6.95;100.00;99219.13;4992599;28;20447;-84
2021/11/04 02:48:32;;;;;;;76.55;33.47;;;9.20;99.90;;;6.89;100.00;99222.59;4991716;28;20119;-85
2021/11/04 02:51:00;;;;;;;77.97;32.50;;;9.20;99.90;;;6.90;100.00;99229.69;5008335;28;20517;-85
2021/11/04 02:53:31;;;;;;;77.72;33.08;;;9.20;99.90;;;6.88;100.00;99222.81;5011760;28;20049;-85
2021/11/04 02:55:58;;;;;;;83.60;35.08;;;9.20;99.90;;;6.94;100.00;99228.28;5011745;28;20834;-84
2021/11/04 02:58:27;;;;;;;79.95;32.78;;;9.10;99.90;;;6.94;100.00;99228.28;5009635;28;20120;-85
2021/11/04 03:00:59;;;;;;;71.53;33.35;;;9.10;99.90;;;6.94;100.00;99233.69;5011720;28;20050;-84
2021/11/04 03:03:27;;;;;;;76.72;33.65;;;9.20;99.90;;;6.97;100.00;99238.72;5011520;28;20112;-84
2021/11/04 03:05:54;;;;;;;84.95;33.92;;;9.10;99.90;;;6.94;100.00;99244.50;5000111;28;20081;-84
2021/11/04 03:08:23;;;;;;;87.78;35.47;;;9.10;99.90;;;6.92;100.00;99248.44;4991322;28;20047;-86
2021/11/04 03:10:50;;;;;;;83.20;34.30;;;9.10;99.90;;;6.88;100.00;99261.50;4992133;28;20046;-85
2021/11/04 03:13:17;;;;;;;69.55;32.45;;;9.10;99.90;;;6.89;100.00;99257.75;4991904;28;20150;-85
2021/11/04 03:15:50;;;;;;;78.47;32.45;;;9.10;99.90;;;6.92;100.00;99257.38;4992002;28;20125;-85
2021/11/04 03:18:19;;;;;;;82.30;33.35;;;9.10;99.90;;;6.87;100.00;99257.09;4991172;28;20066;-85
2021/11/04 03:20:48;;;;;;;83.28;33.15;;;9.00;99.90;;;6.83;100.00;99258.53;4993192;28;20092;-85
2021/11/04 03:23:17;;;;;;;79.05;32.28;;;9.00;99.90;;;6.78;100.00;99261.81;4991580;28;20061;-85
2021/11/04 03:25:46;;;;;;;72.28;31.80;;;9.00;99.90;;;6.80;100.00;99258.94;4991781;28;20048;-85
2021/11/04 03:28:15;;;;;;;75.10;30.98;;;9.00;99.90;;;6.74;100.00;99256.97;4990797;28;20046;-85
2021/11/04 03:30:44;;;;;;;76.30;30.73;;;9.00;99.90;;;6.75;100.00;99255.94;4991491;28;20066;-85
2021/11/04 03:33:12;;;;;;;71.72;29.80;;;9.00;99.90;;;6.67;100.00;99258.78;4991657;28;20451;-85
2021/11/04 03:35:43;;;;;;;77.00;30.70;;;9.00;99.90;;;6.64;100.00;99257.28;4991446;28;20105;-85
2021/11/04 03:38:13;;;;;;;71.53;29.58;;;9.00;99.90;;;6.65;100.00;99258.97;4988544;28;20100;-85
2021/11/04 03:40:43;;;;;;;76.30;29.48;;;9.00;99.90;;;6.70;100.00;99252.97;4991632;28;20074;-85
2021/11/04 03:43:11;;;;;;;71.45;29.48;;;9.00;99.90;;;6.68;100.00;99258.56;4991164;28;20045;-85
2021/11/04 03:45:39;;;;;;;77.55;28.63;;;9.00;99.90;;;6.70;100.00;99247.56;4991500;28;20145;-85
2021/11/04 03:48:08;;;;;;;69.60;27.90;;;8.90;99.90;;;6.76;100.00;99249.50;4990676;28;20511;-85
2021/11/04 03:50:37;;;;;;;73.93;29.05;;;8.90;99.90;;;6.73;100.00;99248.03;5004172;28;20137;-85
2021/11/04 03:53:07;;;;;;;70.80;29.45;;;8.90;99.90;;;6.70;100.00;99242.16;4994927;28;20443;-85
2021/11/04 03:55:35;;;;;;;69.70;28.40;;;8.90;99.90;;;6.74;100.00;99248.84;4989787;28;20058;-84
2021/11/04 03:58:03;;;;;;;72.75;29.95;;;8.90;99.90;;;6.75;100.00;99245.13;4990547;28;20077;-85
2021/11/04 04:00:31;;;;;;;65.30;28.20;;;8.90;99.90;;;6.82;100.00;99256.88;4991296;28;20411;-85
2021/11/04 04:02:58;;;;;;;62.90;27.60;;;8.80;99.90;;;6.80;100.00;99248.94;4991082;28;20090;-85
2021/11/04 04:05:30;;;;;;;74.35;29.02;;;8.80;99.90;;;6.82;100.00;99248.75;4991075;28;20153;-85
2021/11/04 04:07:58;;;;;;;67.57;28.95;;;8.80;99.90;;;6.81;100.00;99244.34;4990279;28;20120;-84
2021/11/04 04:10:31;;;;;;;79.82;30.20;;;8.80;99.90;;;6.80;100.00;99250.81;4990787;28;20482;-84
2021/11/04 04:12:59;;;;;;;67.40;28.00;;;8.80;99.90;;;6.83;100.00;99253.13;4990776;28;20054;-85
2021/11/04 04:15:27;;;;;;;74.13;29.05;;;8.80;99.90;;;6.83;100.00;99256.69;4990715;28;20048;-85
2021/11/04 04:17:55;;;;;;;68.57;27.70;;;8.80;99.90;;;6.86;100.00;99266.25;4989944;28;20057;-85
2021/11/04 04:20:22;;;;;;;68.07;29.15;;;8.80;99.90;;;6.83;100.00;99262.09;4990822;28;20098;-85
2021/11/04 04:22:49;;;;;;;70.95;29.25;;;8.80;99.90;;;6.84;100.00;99271.84;4990561;28;20050;-84
2021/11/04 04:25:16;;;;;;;76.93;29.27;;;8.90;99.90;;;6.84;100.00;99281.84;4990780;28;20137;-85
2021/11/04 04:27:45;;;;;;;78.68;28.77;;;8.80;99.90;;;6.83;100.00;99285.56;4989919;28;20050;-84
2021/11/04 04:30:12;;;;;;;71.53;28.88;;;8.80;99.90;;;6.81;100.00;99279.50;4990649;28;20517;-85
2021/11/04 04:32:40;;;;;;;70.53;27.25;;;8.90;99.90;;;6.83;100.00;99293.69;4990486;28;20124;-84
2021/11/04 04:35:08;;;;;;;66.82;27.00;;;8.90;99.90;;;6.78;100.00;99288.03;4990308;28;20491;-85
2021/11/04 04:37:35;;;;;;;74.20;28.48;;;8.90;99.90;;;6.77;100.00;99297.16;5004701;28;20601;-85
2021/11/04 04:40:03;;;;;;;74.78;29.02;;;8.90;99.90;;;6.76;100.00;99296.31;4990480;28;20049;-85
2021/11/04 04:42:31;;;;;;;78.00;28.20;;;9.00;99.90;;;6.72;100.00;99303.16;4990539;28;20137;-85
2021/11/04 04:44:59;;;;;;;68.53;27.45;;;9.00;99.90;;;6.70;100.00;99301.63;4989998;28;20046;-85
2021/11/04 04:47:26;;;;;;;66.20;25.83;;;9.00;99.90;;;6.74;100.00;99297.53;4989690;28;20070;-85
2021/11/04 04:49:58;;;;;;;72.30;26.55;;;9.00;99.90;;;6.69;100.00;99305.38;4997122;28;20046;-85
2021/11/04 04:52:25;;;;;;;66.00;25.90;;;9.00;99.90;;;6.79;100.00;99298.63;5024934;28;20054;-85
2021/11/04 04:54:55;;;;;;;64.75;25.48;;;8.90;99.90;;;6.78;100.00;99309.66;5009595;28;20042;-85
2021/11/04 04:57:23;;;;;;;66.78;25.83;;;8.90;99.90;;;6.83;100.00;99312.59;5009427;28;20042;-84
2021/11/04 04:59:51;;;;;;;65.60;24.95;;;8.90;99.90;;;6.81;100.00;99315.50;5009605;28;20104;-85
2021/11/04 05:02:20;;;;;;;63.67;25.50;;;8.90;99.90;;;6.76;100.00;99327.91;5009677;28;20100;-85
2021/11/04 05:04:47;;;;;;;68.22;25.80;;;8.90;99.90;;;6.79;100.00;99322.13;5009292;28;20057;-85
2021/11/04 05:07:16;;;;;;;66.22;26.23;;;8.90;99.90;;;6.78;100.00;99321.31;5009722;28;20461;-85
2021/11/04 05:09:43;;;;;;;67.05;26.05;;;8.90;99.90;;;6.78;100.00;99328.59;5008991;28;20120;-85
2021/11/04 05:12:11;;;;;;;65.07;24.23;;;8.90;99.90;;;6.82;100.00;99333.41;5009559;28;20766;-85
2021/11/04 05:14:39;;;;;;;58.80;23.30;;;9.00;99.90;;;6.78;100.00;99332.13;5009218;28;20038;-85
2021/11/04 05:17:06;;;;;;;65.65;25.65;;;9.00;99.90;;;6.75;100.00;99337.06;5009194;28;20056;-84
2021/11/04 05:19:35;;;;;;;69.45;25.42;;;9.00;99.90;;;6.74;100.00;99341.63;4995658;28;20096;-85
2021/11/04 05:22:02;;;;;;;67.53;25.45;;;9.00;99.90;;;6.74;100.00;99336.22;4989585;28;20042;-84
2021/11/04 05:24:34;;;;;;;72.00;27.02;;;9.00;99.90;;;6.74;100.00;99341.63;4989469;28;20137;-82
2021/11/04 05:27:01;;;;;;;;;;;9.00;99.90;;;6.74;100.00;99329.97;4990157;28;20061;-84
2021/11/04 05:29:30;;;;;;;72.15;26.67;;;9.00;99.90;;;6.73;100.00;99328.31;4988607;28;19926;-83
2021/11/04 05:31:57;;;;;;;74.45;27.50;;;9.00;99.90;;;6.74;100.00;99324.56;4988376;28;20046;-87
2021/11/04 05:34:25;;;;;;;75.55;29.23;;;9.00;99.90;;;6.68;100.00;99328.03;4989642;28;20081;-87
2021/11/04 05:36:54;;;;;;;69.97;27.50;;;9.00;99.90;;;6.74;100.00;99332.66;4989522;28;20043;-87
2021/11/04 05:39:21;;;;;;;75.07;29.20;;;9.00;99.90;;;6.72;100.00;99335.59;4988643;28;20085;-87
2021/11/04 05:41:48;;;;;;;73.68;26.52;;;9.00;99.90;;;6.72;100.00;99334.72;5004633;28;20073;-87
2021/11/04 05:44:15;;;;;;;71.53;26.20;;;9.00;99.90;;;6.68;100.00;99333.44;4987754;28;20042;-85
2021/11/04 05:46:43;;;;;;;70.00;26.98;;;9.00;99.90;;;6.72;100.00;99327.47;4987949;28;20137;-86
2021/11/04 05:49:10;;;;;;;69.88;26.30;;;9.00;99.90;;;6.72;100.00;99332.88;4989764;28;20052;-86
2021/11/04 05:51:37;;;;;;;78.38;28.73;;;8.90;99.90;;;6.67;100.00;99329.06;4998801;28;20472;-85
2021/11/04 05:54:06;;;;;;;76.60;28.20;;;9.00;99.90;;;6.57;100.00;99330.19;4987950;28;20046;-87
2021/11/04 05:56:33;;;;;;;78.45;27.80;;;8.90;99.90;;;6.63;100.00;99326.72;4988825;28;20112;-87
2021/11/04 05:59:00;;;;;;;76.03;26.85;;;8.90;99.90;;;6.57;100.00;99337.47;4987902;28;20125;-86
2021/11/04 06:01:28;;;;;;;87.53;28.65;;;9.00;99.90;;;6.61;100.00;99331.50;4988601;28;20077;-87
2021/11/04 06:03:56;;;;;;;74.95;27.75;;;8.90;99.90;;;6.60;100.00;99334.38;4988837;28;20050;-87
2021/11/04 06:06:23;;;;;;;76.38;28.98;;;8.90;99.90;;;6.58;100.00;99328.31;4989242;28;20121;-87
2021/11/04 06:08:51;;;;;;;79.35;28.92;;;8.90;99.90;;;6.56;100.00;99327.66;4988518;28;20054;-87
2021/11/04 06:11:19;;;;;;;85.63;28.08;;;8.90;99.90;;;6.52;100.00;99327.19;4989151;28;20043;-87
2021/11/04 06:13:47;;;;;;;90.22;29.88;;;8.90;99.90;;;6.49;100.00;99329.44;4989124;28;20144;-87
2021/11/04 06:16:14;;;;;;;84.68;29.02;;;8.90;99.90;;;6.50;100.00;99320.31;4989392;28;20070;-89
2021/11/04 06:18:42;;;;;;;92.70;29.92;;;8.80;99.90;;;6.54;100.00;99322.44;5003484;28;20066;-90
2021/11/04 06:21:12;;;;;;;83.97;29.02;;;8.80;99.90;;;6.52;100.00;99320.97;4987980;28;20042;-90
2021/11/04 06:23:51;;;;;;;92.43;30.80;;;8.90;99.90;;;6.50;100.00;99318.44;4987619;28;20047;-92
2021/11/04 06:26:20;;;;;;;87.82;30.65;;;8.80;99.90;;;6.52;100.00;99321.78;4989184;28;20129;-88
2021/11/04 06:28:47;;;;;;;95.50;31.77;;;8.80;99.90;;;6.54;100.00;99319.75;4988098;28;20121;-89
2021/11/04 06:31:15;;;;;;;91.90;28.90;;;8.90;99.90;;;6.52;100.00;99324.50;4984350;28;20046;-87
2021/11/04 06:33:42;;;;;;;88.03;31.77;;;8.90;99.90;;;6.56;100.00;99323.09;4979376;28;20053;-89
2021/11/04 06:36:09;;;;;;;86.65;30.98;;;8.80;99.90;;;6.57;100.00;99334.78;5009599;28;20097;-89
2021/11/04 06:38:37;;;;;;;86.43;31.33;;;8.80;99.90;;;6.63;100.00;99329.44;4986114;28;20149;-91
2021/11/04 06:41:04;;;;;;;88.80;31.10;;;8.80;99.90;;;6.66;100.00;99333.63;4989194;28;20043;-92
2021/11/04 06:43:33;;;;;;;93.22;32.17;;;8.80;99.90;;;6.69;100.00;99333.25;5003767;28;20105;-93
2021/11/04 06:46:03;;;;;;;93.50;32.40;;;8.90;99.90;;;6.65;100.00;99331.94;5004491;28;20043;-93
2021/11/04 06:48:42;;;;;;;101.25;32.20;;;8.90;99.90;;;6.63;100.00;99340.25;4989352;28;20042;-92
2021/11/04 06:51:12;;;;;;;92.57;31.17;;;8.90;99.90;;;6.54;100.00;99345.94;4989335;28;20062;-91
2021/11/04 06:53:46;;;;;;;110.00;34.28;;;8.90;99.90;;;6.58;100.00;99348.06;5003547;28;20043;-91
2021/11/04 06:56:15;;;;;;;88.55;31.95;;;8.90;99.90;;;6.61;100.00;99346.88;5012643;28;20562;-90
2021/11/04 06:58:49;;;;;;;96.95;32.92;;;8.90;99.90;;;6.60;100.00;99347.88;4987971;28;20169;-91
2021/11/04 07:01:20;;;;;;;94.38;32.42;;;8.90;99.90;;;6.58;100.00;99353.47;5012021;28;20046;-92
2021/11/04 07:03:53;;;;;;;94.97;31.35;;;8.90;99.90;;;6.63;100.00;99348.34;5003169;28;20054;-91
2021/11/04 07:06:26;;;;;;;93.65;31.98;;;8.90;99.90;;;6.65;100.00;99354.41;4988318;28;20423;-92
2021/11/04 07:08:58;;;;;;;86.85;31.65;;;8.90;99.90;;;6.62;100.00;99353.94;5003076;28;20054;-92
2021/11/04 07:11:29;;;;;;;107.93;34.33;;;8.90;99.90;;;6.68;100.00;99357.75;4980827;28;20049;-90
2021/11/04 07:13:58;;;;;;;100.78;33.33;;;8.90;99.90;;;6.64;100.00;99354.59;4988777;28;20121;-90
2021/11/04 07:16:26;;;;;;;83.38;29.63;;;8.90;99.90;;;6.72;100.00;99365.31;4986526;28;20078;-92
2021/11/04 07:18:57;;;;;;;92.32;31.52;;;8.90;99.90;;;6.75;100.00;99364.94;5006156;28;20058;-92
2021/11/04 07:21:44;;;;;;;82.47;30.13;;;8.90;99.90;;;6.79;100.00;99370.81;4991005;28;20061;-91
2021/11/04 07:24:23;;;;;;;102.80;32.40;;;8.90;99.90;;;6.78;100.00;99364.56;5005334;28;20053;-92
2021/11/04 07:26:56;;;;;;;97.35;31.08;;;8.90;99.90;;;6.81;100.00;99368.75;4989580;28;20462;-92
2021/11/04 07:29:34;;;;;;;99.57;32.80;;;8.90;99.90;;;6.81;100.00;99374.97;4990371;28;20057;-93
2021/11/04 07:32:03;;;;;;;103.53;33.15;;;8.90;99.90;;;6.74;100.00;99379.50;5004204;28;20066;-91
2021/11/04 07:34:31;;;;;;;109.88;33.65;;;8.90;99.90;;;6.75;100.00;99377.63;4992917;28;20106;-92
2021/11/04 07:37:01;;;;;;;100.35;32.72;;;8.90;99.90;;;6.81;100.00;99379.56;5006568;28;20051;-91
2021/11/04 07:39:29;;;;;;;100.88;33.60;;;8.90;99.90;;;6.74;100.00;99378.63;4991056;28;20046;-92
2021/11/04 07:41:57;;;;;;;99.00;33.05;;;8.90;99.90;;;6.79;100.00;99382.44;4989218;28;20077;-91
2021/11/04 07:44:28;;;;;;;99.68;34.15;;;8.90;99.90;;;6.83;100.00;99386.47;4991790;28;20125;-91
2021/11/04 07:46:55;;;;;;;103.22;34.17;;;8.80;99.90;;;6.87;100.00;99384.22;4991231;28;20046;-91
2021/11/04 07:49:23;;;;;;;115.90;34.17;;;8.80;99.90;;;6.92;100.00;99387.19;4991894;28;20529;-92
2021/11/04 07:51:51;;;;;;;102.25;33.58;;;8.90;99.90;;;6.89;100.00;99394.84;5007876;28;20046;-93
2021/11/04 07:54:19;;;;;;;119.25;34.13;;;8.90;99.90;;;6.92;100.00;99403.44;4991248;28;20038;-93
2021/11/04 07:56:46;;;;;;;115.35;35.10;;;8.90;99.90;;;6.89;100.00;99406.50;4990181;28;20503;-91
2021/11/04 07:59:14;;;;;;;115.05;34.47;;;9.00;99.90;;;6.83;100.00;99413.53;5006512;28;20579;-91
2021/11/04 08:01:42;;;;;;;106.93;34.55;;;9.00;99.90;;;6.85;100.00;99413.31;4990942;28;20054;-91
2021/11/04 08:04:10;;;;;;;110.10;36.28;;;9.00;99.90;;;6.84;100.00;99420.59;5006175;28;20515;-90
2021/11/04 08:06:37;;;;;;;115.72;36.70;;;9.00;99.90;;;6.81;100.00;99423.66;4991485;28;20096;-92
2021/11/04 08:09:05;;;;;;;111.72;36.33;;;9.00;99.90;;;6.90;100.00;99429.00;4990860;28;20051;-91
2021/11/04 08:11:32;;;;;;;110.68;34.42;;;9.00;99.90;;;6.89;100.00;99430.84;5014945;28;20057;-92
2021/11/04 08:14:00;;;;;;;104.80;33.75;;;9.00;99.90;;;6.95;100.00;99431.94;4989851;28;20042;-91
2021/11/04 08:16:27;;;;;;;99.10;33.22;;;9.00;99.90;;;7.01;100.00;99428.53;4990959;28;20061;-91
2021/11/04 08:18:56;;;;;;;94.53;32.65;;;9.00;99.90;;;7.05;100.00;99435.22;4984533;28;20038;-87
2021/11/04 08:21:23;;;;;;;105.20;35.10;;;9.10;99.90;;;7.11;100.00;99439.03;4986900;28;20100;-87
2021/11/04 08:23:50;;;;;;;111.13;34.67;;;9.10;99.90;;;7.08;100.00;99450.22;4988143;28;20127;-88
2021/11/04 08:26:18;;;;;;;101.18;34.97;;;9.10;99.90;;;6.97;100.00;99452.41;4989870;28;20047;-87
2021/11/04 08:28:45;;;;;;;110.53;36.17;;;9.10;99.90;;;7.00;100.00;99457.41;4985997;28;20466;-87
2021/11/04 08:31:12;;;;;;;109.13;34.97;;;9.10;99.90;;;7.04;100.00;99456.03;4988642;28;20096;-86
2021/11/04 08:33:40;;;;;;;114.65;36.67;;;9.10;99.90;;;7.04;100.00;99460.59;4988627;28;20121;-87
2021/11/04 08:36:08;;;;;;;119.25;38.38;;;9.10;99.90;;;7.10;100.00;99459.00;4987569;28;20065;-86
2021/11/04 08:38:36;;;;;;;125.25;38.83;;;9.20;99.90;;;7.12;100.00;99462.34;4989044;28;20038;-88
2021/11/04 08:41:04;;;;;;;114.80;36.22;;;9.20;99.90;;;7.15;100.00;99462.81;4989206;28;20078;-87
2021/11/04 08:43:32;;;;;;;129.13;39.22;;;9.20;99.90;;;7.17;100.00;99465.34;4988102;28;20766;-87
2021/11/04 08:45:59;;;;;;;118.30;37.80;;;9.20;99.90;;;7.25;100.00;99473.34;4983606;28;20047;-86
2021/11/04 08:48:27;;;;;;;118.90;39.35;;;9.30;99.90;;;7.34;100.00;99466.81;4988228;28;20145;-87
2021/11/04 08:50:54;;;;;;;118.35;38.55;;;9.30;99.90;;;7.35;100.00;99467.63;4989443;28;20052;-87
2021/11/04 08:53:25;;;;;;;115.35;36.95;;;9.30;99.90;;;7.32;100.00;99470.72;4989817;28;20148;-87
2021/11/04 08:55:52;;;;;;;120.17;37.43;;;9.30;99.90;;;7.30;100.00;99473.63;4989459;28;20069;-87
2021/11/04 08:58:19;;;;;;;104.22;34.70;;;9.40;99.90;;;7.34;100.00;99472.22;4986439;28;20105;-89
2021/11/04 09:00:47;;;;;;;97.18;34.90;;;9.40;99.90;;;7.38;100.00;99478.09;4988940;28;20133;-89
2021/11/04 09:03:16;;;;;;;119.20;36.58;;;9.40;99.90;;;7.38;100.00;99473.50;4988391;28;20091;-86
2021/11/04 09:05:45;;;;;;;96.13;33.60;;;9.40;99.90;;;7.44;100.00;99466.50;4990455;28;20046;-93
2021/11/04 09:08:13;;;;;;;99.93;33.72;;;9.40;99.90;;;7.49;100.00;99483.03;4988555;28;20069;-91
2021/11/04 09:10:42;;;;;;;114.07;34.33;;;9.40;99.90;;;7.51;100.00;99477.41;5004038;28;20038;-84
2021/11/04 09:13:09;;;;;;;107.88;35.63;;;9.50;99.90;;;7.54;100.00;99482.44;4989121;28;20050;-92
2021/11/04 09:15:39;;;;;;;110.53;36.80;;;9.50;99.90;;;7.53;100.00;99484.31;4989385;28;20054;-87
2021/11/04 09:18:06;;;;;;;112.63;36.88;;;9.50;99.90;;;7.43;100.00;99492.75;4988363;28;20104;-88
2021/11/04 09:20:35;;;;;;;111.25;35.22;;;9.50;99.90;;;7.43;100.00;99487.31;4985510;28;20517;-90
2021/11/04 11:21:55;;;;;;;86.93;38.67;;;10.00;99.90;;;8.30;100.00;99563.28;5001658;28;20054;-95
2021/11/04 11:24:36;;;;;;;86.28;39.13;;;10.10;99.90;;;8.27;100.00;99563.69;4993947;28;20039;-92
2021/11/04 11:27:10;;;;;;;89.72;40.35;;;10.10;99.90;;;8.27;100.00;99564.50;4970590;28;20054;-93
2021/11/04 11:29:59;;;;;;;89.85;39.05;;;10.10;99.90;;;8.19;100.00;99561.94;4966099;28;20051;-95
2021/11/04 11:32:40;;;;;;;;;;;;;;;;;;;;;
2021/11/04 11:35:19;;;;;;;89.55;40.00;;;10.10;99.90;;;8.06;100.00;99568.03;4996443;28;20411;-93
2021/11/04 11:38:07;;;;;;;85.30;39.25;;;10.10;99.90;;;8.08;100.00;99563.28;4979958;28;20050;-93
2021/11/04 11:40:47;;;;;;;89.75;38.55;;;10.10;99.90;;;8.06;100.00;99570.75;4970286;28;20847;-95
2021/11/04 11:44:09;;;;;;;;;;;;;;;;;;;;;
2021/11/04 13:15:43;;;;;;;;;;;;;;;;;;;;;
2021/11/04 13:18:29;;;;;;;;;;;;;;;;;;;;;
2021/11/04 13:30:12;;;;;;;;;;;;;;;;;;;;;
2021/11/04 14:51:29;;;;;;;;;;;;;;;;;;;;;
2021/11/04 14:54:41;;;;;;;;;;;;;;;;;;;;;
2021/11/04 14:57:24;;;;;;;61.83;31.15;;;10.80;99.90;;;8.56;100.00;99699.16;5028107;28;20038;-93
2021/11/04 14:59:57;;;;;;;57.72;31.40;;;10.80;99.90;;;8.54;100.00;99694.97;5028510;28;20081;-95
2021/11/04 15:02:28;;;;;;;56.83;31.00;;;10.80;99.90;;;8.58;100.00;99705.22;5025136;28;20049;-95
2021/11/04 15:05:01;;;;;;;56.03;29.73;;;10.80;99.90;;;8.55;100.00;99713.75;5005584;28;20026;-93
2021/11/04 15:07:32;;;;;;;60.05;29.73;;;10.80;99.90;;;8.53;100.00;99709.53;5027011;28;20046;-94
2021/11/04 15:10:01;;;;;;;;;;;10.80;99.90;;;8.49;100.00;99717.25;5006421;28;20049;-93
2021/11/04 15:12:29;;;;;;;48.17;25.58;;;10.80;99.90;;;8.49;100.00;99713.66;5033633;28;19925;-92
2021/11/04 15:14:58;;;;;;;50.03;25.52;;;10.80;99.90;;;8.45;100.00;99729.47;5008072;28;20054;-93
2021/11/04 15:17:26;;;;;;;46.15;24.83;;;10.80;99.90;;;8.46;100.00;99723.03;5004816;28;20077;-93
2021/11/04 15:20:15;;;;;;;46.72;24.52;;;10.70;99.90;;;8.43;100.00;99730.72;5027059;28;20054;-95
2021/11/04 15:23:10;;;;;;;;;;;;;;;;;;;;;
2021/11/04 15:26:09;;;;;;;49.00;24.13;;;10.70;99.90;;;8.44;100.00;99738.66;5006480;28;20307;-94
2021/11/04 15:28:48;;;;;;;48.90;25.00;;;10.70;99.90;;;8.38;100.00;99737.50;5002980;28;20061;-93
2021/11/04 15:31:23;;;;;;;51.90;26.25;;;10.60;99.90;;;8.38;100.00;99736.69;5007258;28;20049;-94